Flight Track Log - Related Links

Times and Time Zones

All times are in EDT time to prevent confusion due to time zone crossing. See the JTA1562 flight status page for this flight to view local times or setup timezone preferences in your user account.

Time Position Orientation Groundspeed Altitude Reporting Facility
EDT Latitude Longitude Course Direction KTS MPH feet Rate Location/Type
Tue 01:36:00 AM 25.0110 125.6668 56° Northeast  Level Estimated
Tue 01:37:00 AM 25.0679 125.7600 56° Northeast  Level Estimated
Tue 01:38:00 AM 25.1247 125.8532 56° Northeast  Level Estimated
Tue 01:39:00 AM 25.1815 125.9466 56° Northeast  Level Estimated
Tue 01:40:00 AM 25.2382 126.0400 56° Northeast  Level Estimated
Tue 01:41:00 AM 25.2949 126.1335 56° Northeast  Level Estimated
Tue 01:42:00 AM 25.3515 126.2271 56° Northeast  Level Estimated
Tue 01:43:00 AM 25.4080 126.3207 56° Northeast  Level Estimated
Tue 01:44:00 AM 25.4645 126.4145 56° Northeast  Level Estimated
Tue 01:45:00 AM 25.5209 126.5083 56° Northeast  Level Estimated
Tue 01:46:00 AM 25.5773 126.6023 56° Northeast  Level Estimated
Tue 01:47:00 AM 25.6336 126.6963 56° Northeast  Level Estimated
Tue 01:48:00 AM 25.6898 126.7904 56° Northeast  Level Estimated
Tue 01:49:00 AM 25.7460 126.8846 56° Northeast  Level Estimated
Tue 01:50:00 AM 25.8021 126.9789 57° Northeast  Level Estimated
Tue 01:51:00 AM 25.8582 127.0733 57° Northeast  Level Estimated
Tue 01:52:00 AM 25.9142 127.1678 57° Northeast  Level Estimated
Tue 01:53:00 AM 25.9701 127.2623 57° Northeast  Level Estimated
Tue 01:54:00 AM 26.0260 127.3570 57° Northeast  Level Estimated
Tue 01:55:00 AM 26.0818 127.4517 57° Northeast  Level Estimated
Tue 01:56:00 AM 26.1375 127.5465 57° Northeast  Level Estimated
Tue 01:57:00 AM 26.1932 127.6415 57° Northeast  Level Estimated
Tue 01:58:00 AM 26.1958 127.6459 57° Northeast  Level Estimated
Tue 01:59:00 AM 26.1958 127.6459 347° North  Level Estimated
Tue 02:00:00 AM 26.1958 127.6459 347° North  Level Estimated
Tue 02:01:00 AM 26.1958 127.6459 347° North  Level Estimated
Tue 02:02:00 AM 26.1958 127.6459 347° North  Level Estimated
Tue 02:03:00 AM 26.1958 127.6459 347° North  Level Estimated
Tue 02:04:00 AM 26.1958 127.6459 347° North  Level Estimated
Tue 02:05:00 AM 26.1958 127.6459 347° North  Level Estimated
Tue 02:06:00 AM 26.1958 127.6459 347° North  Level Estimated
Tue 02:07:00 AM 26.1958 127.6459 347° North  Level Estimated
Tue 02:08:00 AM 26.1958 127.6459 347° North  Level Estimated
Tue 02:09:00 AM 26.1958 127.6459 347° North  Level Estimated
Tue 02:10:00 AM 26.1958 127.6459 347° North  Level Estimated
Tue 02:11:00 AM 26.1958 127.6459 347° North  Level Estimated

Login

Don't have an account? Register now (free) for customized features, flight alerts, and more!